Pt. Reyes RCA field Weather observations

Data are for 10 minute period ending at time listed.
 Day   Time   Solar   Ave.   Ave.  Ave.  Vector    Max.   Stn.   Total 
  of    of     Rad.   Air    Rel.  Wind   Wind     Wind   Baro. Precip.
Year   Day            Temp.  Hum.  Speed  Dir.     Gust   Pres.        
2017   (PST)   W/m2    F      %     mph   deg.      mph    mb.    in.  
-----------------------------------------------------------------------
  21   20:30    0.0    49   93.5    27    138.0    35.7   1004.4  0.00  
  21   20:40    0.0    48   92.2    28    134.4    37.6   1004.4  0.00  
  21   20:50    0.0    48   91.8    22    129.0    30.2   1004.4  0.01  
  21   21:00    0.0    48   91.6    22    126.4    32.5   1004.1  0.00  
  21   21:10    0.0    48   90.6    24    125.5    33.4   1003.7  0.00  
  21   21:20    0.0    48   89.4    23    127.8    29.7   1004.1  0.01  
  21   21:30    0.0    48   88.7    23    126.0    32.9   1003.7  0.00  
  21   21:40    0.0    48   88.5    21    123.8    30.8   1003.4  0.00  
  21   21:50    0.0    48   87.6    24    124.9    33.5   1003.4  0.00  
  21   22:00    0.0    48   86.8    24    128.7    33.2   1003.4  0.00  
  21   22:10    0.0    48   87.1    23    127.0    31.5   1003.1  0.01  
  21   22:20    0.0    48   87.3    24    128.4    35.4   1003.1  0.00  
  21   22:30    0.0    48   86.5    26    128.3    37.9   1002.7  0.00  
  21   22:40    0.0    48   87.5    24    125.7    33.1   1002.4  0.01  
  21   22:50    0.0    48   87.1    29    125.9    37.4   1002.0  0.00  
  21   23:00    0.0    48   88.7    25    132.0    35.1   1001.7  0.00  
  21   23:10    0.0    48   90.0    26    132.1    35.8   1001.4  0.00  
  21   23:20    0.0    48   90.8    28    128.6    35.5   1001.0  0.01  
  21   23:30    0.0    49   89.9    30    130.2    41.6   1001.0  0.00  
  21   23:40    0.0    49   90.8    30    132.8    40.5   1000.7  0.00  
  21   23:50    0.0    49   92.5    28    132.7    40.6   1000.7  0.01  
  22    0:00    0.0    48   94.2    30    134.2    41.1   1000.7  0.00  
  22    0:10    0.0    48   95.2    28    134.9    39.9   1000.3  0.00  
  22    0:20    0.0    48   95.6    29    135.2    37.8   1000.7  0.01  
  22    0:30    0.0    49   96.5    31    138.0    40.6   1000.3  0.00  
  22    0:40    0.0    50   96.9    33    142.4    42.0    999.7  0.01  
  22    0:50    0.0    50   97.2    32    146.0    46.9    999.7  0.00  
  22    1:00    0.0    50   96.7    35    150.9    53.4    999.3  0.00  
  22    1:10    0.0    51   96.4    36    152.2    50.7    999.0  0.01  
  22    1:20    0.0    51   95.9    36    156.0    52.0    998.6  0.01  
  22    1:30    0.0    51   95.6    37    156.3    53.7    998.6  0.00  
  22    1:40    0.0    51   95.8    36    156.2    50.4    998.6  0.00  
  22    1:50    0.0    51   96.1    38    157.1    50.5    998.3  0.01  
  22    2:00    0.0    51   96.0    38    155.4    50.0    998.3  0.01  
  22    2:10    0.0    51   96.3    37    157.8    48.7    998.3  0.00  
  22    2:20    0.0    51   96.6    36    159.4    51.4    998.3  0.00  
  22    2:30    0.0    51   96.9    33    157.1    46.5    998.0  0.01  
  22    2:40    0.0    51   96.8    38    163.9    54.7    998.0  0.00  
  22    2:50    0.0    52   96.6    39    166.9    54.6    998.0  0.00  
  22    3:00    0.0    52   96.5    39    171.8    54.1    998.0  0.01  
  22    3:10    0.0    52   96.9    35    178.1    46.3    998.3  0.00  
  22    3:20    0.0    51   96.0    18    230.0    35.4    999.3  0.00  
  22    3:30    0.0    51   95.9    13    241.4    21.5    999.3  0.00  
  22    3:40    0.0    51   95.7    14    236.2    20.6    999.7  0.00  
  22    3:50    0.0    51   95.1    12    230.0    16.5    999.7  0.01  
  22    4:00    0.0    51   94.9    13    222.9    17.6   1000.0  0.00  
  22    4:10    0.0    51   95.0    11    220.7    14.8   1000.0  0.00  
  22    4:20    0.0    51   95.1     9    225.5    13.7   1000.0  0.00  
  22    4:30    0.0    51   94.5     9    229.4    12.6   1000.0  0.01  
  22    4:40    0.0    50   94.3     8    215.5    11.0   1000.0  0.00  
  22    4:50    0.0    50   94.6     8    207.4    11.8   1000.0  0.00  
  22    5:00    0.0    50   94.8    11    219.3    14.5   1000.3  0.00  
  22    5:10    0.0    50   95.1    10    225.4    12.9   1000.3  0.00  
  22    5:20    0.0    50   95.0     9    228.4    12.6   1000.3  0.01  
  22    5:30    0.0    50   95.1    10    223.5    13.7   1000.3  0.00  
  22    5:40    0.0    50   95.3     8    227.5    10.5   1000.7  0.00  
  22    5:50    0.0    51   95.5     8    233.3    12.6   1000.7  0.00  
  22    6:00    0.0    51   95.0     8    238.2    10.2   1001.0  0.01  
  22    6:10    0.0    51   94.3     8    236.0    11.1   1001.0  0.00  
  22    6:20    0.0    51   94.0     8    230.3    12.1   1001.4  0.00  
  22    6:30    0.0    51   93.7     9    236.9    12.4   1001.4  0.00  
  22    6:40    0.0    50   93.0     8    251.4    12.7   1001.7  0.00  
  22    6:50    0.0    51   91.5    11    268.2    15.7   1001.7  0.00  
  22    7:00    0.0    51   87.1    12    279.4    17.2   1001.7  0.01  
  22    7:10    0.0    50   85.9     8    276.2    10.7   1001.7  0.00  
  22    7:20    0.0    49   85.1     8    277.1    10.1   1002.0  0.00  
  22    7:30    3.0    49   85.4     7    282.4     9.1   1002.0  0.00  
  22    7:40    4.0    48   86.3     5    269.8     6.9   1002.0  0.01  
  22    7:50    7.0    48   87.0     4    257.7     5.7   1002.4  0.00  
  22    8:00   10.0    48   87.5     4    243.9     4.5   1002.4  0.00  
  22    8:10   16.0    47   88.1     3    228.5     4.0   1002.4  0.00  
  22    8:20   80.0    47   90.2     4    219.3     5.6   1002.7  0.00  
  22    8:30  126.0    49   89.4     4    205.6     5.2   1002.7  0.00  
  22    8:40  152.0    50   88.4     3    184.8     4.2   1003.1  0.00  
  22    8:50  173.0    51   87.4     3    196.0     3.9   1003.4  0.01  
  22    9:00  203.0    52   86.8     4    189.6     5.1   1003.4  0.00  
  22    9:10  228.0    52   84.5     4    222.2     6.4   1003.7  0.00  
  22    9:20  248.0    53   80.2     6    228.2     7.7   1003.7  0.00  
  22    9:30  281.0    53   77.6     6    234.5     8.6   1004.1  0.01  
  22    9:40  199.0    53   74.9     6    224.9     9.8   1004.1  0.00  
  22    9:50   64.0    52   76.3     4    247.2     5.5   1004.1  0.00  
  22   10:00  265.0    52   76.7     6    224.9    10.7   1004.4  0.00  
  22   10:10  285.0    53   71.3     8    215.9    10.7   1004.4  0.00  
  22   10:20  113.0    53   72.6     7    209.1     9.3   1004.4  0.00  
  22   10:30  326.0    53   73.9     7    203.7    10.4   1004.4  0.01  
  22   10:40  424.0    54   68.8     9    221.4    11.7   1004.4  0.00  
  22   10:50  531.0    55   68.2    10    200.7    12.3   1004.4  0.00  
  22   11:00  522.0    55   66.9    10    184.0    13.2   1004.4  0.00  
  22   11:10  514.0    55   67.1     9    188.5    13.0   1004.4  0.01  
  22   11:20  422.0    55   67.1    10    171.5    14.5   1004.1  0.00  
  22   11:30  527.0    55   67.5    10    166.3    13.4   1003.7  0.00  
  22   11:40  542.0    55   67.8     9    160.5    12.6   1003.7  0.00  
  22   11:50  496.0    55   67.4     9    152.7    13.5   1003.4  0.00  
  22   12:00  300.0    54   68.2    10    156.3    12.6   1003.4  0.01  
  22   12:10  437.0    54   68.7     9    168.3    12.5   1003.1  0.00  
  22   12:20  298.0    54   69.5     9    169.1    12.9   1002.7  0.00  
  22   12:30  328.0    54   71.1     9    153.5    11.8   1002.4  0.00  
  22   12:40  277.0    54   71.2    10    157.3    13.6   1002.4  0.01  
  22   12:50  253.0    54   71.8    10    160.2    12.6   1002.0  0.00  
  22   13:00  212.0    54   72.9    10    147.5    11.8   1001.7  0.00  
  22   13:10  191.0    54   73.7    10    148.2    13.7   1001.7  0.00  
  22   13:20  156.0    53   74.5    10    146.3    11.8   1001.4  0.00  
  22   13:30  133.0    53   76.1    10    142.9    13.2   1001.0  0.00  
  22   13:40  126.0    53   77.8    11    147.1    13.7   1000.7  0.01  
  22   13:50  107.0    53   79.4    12    142.3    15.4   1000.3  0.00  
  22   14:00   71.0    53   80.5    11    142.9    13.8   1000.3  0.00  
  22   14:10   43.0    52   81.8    10    145.6    12.1   1000.3  0.00  
  22   14:20   26.0    52   83.5     8    166.5    13.4   1000.7  0.01  
  22   14:30   13.0    49   83.3    20    216.7    28.1   1001.0  0.00  
  22   14:40   19.0    46   92.2    21    248.7    28.9   1001.0  0.00  
  22   14:50   16.0    46   94.8    18    244.8    26.5   1001.0  0.00  
  22   15:00   16.0    46   94.8    16    225.8    22.8   1000.7  0.00  
  22   15:10   16.0    46   92.6    17    221.9    23.4   1000.7  0.00  
  22   15:20   16.0    46   90.5    13    211.7    17.7   1000.7  0.00  
  22   15:30   16.0    46   92.1     8    191.4    11.2   1000.7  0.01  
  22   15:40   17.0    46   93.3     4    172.6     7.5   1000.7  0.00  
  22   15:50   18.0    46   93.9     5    170.3     7.5   1000.7  0.00  
  22   16:00   10.0    46   94.1     5    159.6     7.2   1000.7  0.00  
  22   16:10   10.0    46   94.5     5    166.0    10.6   1000.7  0.01  
  22   16:20   10.0    46   94.5     5    160.8     6.5   1000.7  0.00  
  22   16:30   10.0    46   94.7     6    142.3     7.9   1000.3  0.00  
  22   16:40   16.0    46   95.1     7    126.5     8.6   1000.0  0.00  
  22   16:50   23.0    46   95.4     5    134.6     7.0   1000.3  0.00  
  22   17:00   26.0    46   95.7     5    141.7     7.2   1000.3  0.00  
  22   17:10   14.0    46   95.7     5    152.4     6.3   1000.3  0.00  
  22   17:20    5.0    47   95.8     6    193.6     8.5   1000.3  0.01  
  22   17:30    2.0    47   95.1     7    219.6     9.8   1000.3  0.00  
  22   17:40    0.0    47   94.3     8    228.6    10.8   1000.3  0.00  
  22   17:50    0.0    47   92.7     7    237.5    10.4   1000.3  0.00  
  22   18:00    0.0    47   91.3     6    236.2     9.1   1000.3  0.01  
  22   18:10    0.0    47   89.6     6    229.3     8.6   1000.3  0.00  
  22   18:20    0.0    47   90.7     4    233.3     7.3   1000.3  0.00  
  22   18:30    0.0    48   91.1     5    236.8     8.0   1000.7  0.00  
  22   18:40    0.0    48   90.1     6    227.8     8.2   1000.7  0.00  
  22   18:50    0.0    48   90.3     4    221.5     6.2   1000.7  0.00  
  22   19:00    0.0    48   90.9     6    229.6     8.7   1000.7  0.00  
  22   19:10    0.0    48   90.1     6    197.3     9.5   1000.7  0.01  
  22   19:20    0.0    47   91.8     5    191.3     6.6   1001.0  0.00  
  22   19:30    0.0    47   92.3     7    224.8    10.4   1001.0  0.00  
  22   19:40    0.0    48   88.6     8    229.2    13.4   1001.0  0.00  
  22   19:50    0.0    48   87.5     9    224.5    13.2   1001.0  0.01  
  22   20:00    0.0    48   85.8     9    255.0    12.3   1000.7  0.00  
  22   20:10    0.0    47   85.2     7    268.6     8.7   1001.0  0.00  
  22   20:20    0.0    47   85.1     5    271.0     5.8   1001.0  0.00  

Return to Pt. Reyes graphs page.


Western Regional Climate Center,wrcc@dri.edu